Wetterdaten: Woche 21.08.17 - 27.08.17 (KW34)
Datum Zeit Temperatur Luftfeuchte Luftdruck Niederschlag Windrichtung Sonnenschein Solar Wind
21.08.2017 00:00 11,6 C 91 % 1022,8 hPa 0,0 l/m N 0,00 h 0 W/m 0,0 km/h (0 Bft)
21.08.2017 01:00 11,2 C 92 % 1022,6 hPa 0,0 l/m N 0,00 h 0 W/m 0,0 km/h (0 Bft)
21.08.2017 02:00 11,0 C 93 % 1022,6 hPa 0,0 l/m N 0,00 h 0 W/m 0,0 km/h (0 Bft)
21.08.2017 03:00 10,4 C 94 % 1022,4 hPa 0,0 l/m N 0,00 h 0 W/m 0,0 km/h (0 Bft)
21.08.2017 04:00 10,3 C 95 % 1022,1 hPa 0,0 l/m N 0,00 h 0 W/m 0,0 km/h (0 Bft)
21.08.2017 05:00 10,3 C 95 % 1021,8 hPa 0,0 l/m N 0,00 h 0 W/m 0,0 km/h (0 Bft)
21.08.2017 06:00 10,5 C 95 % 1021,8 hPa 0,0 l/m N 0,00 h 10 W/m 0,0 km/h (0 Bft)
21.08.2017 07:00 10,9 C 95 % 1021,9 hPa 0,0 l/m N 0,00 h 42 W/m 0,0 km/h (0 Bft)
21.08.2017 08:00 12,2 C 91 % 1022,1 hPa 0,0 l/m N 0,00 h 103 W/m 0,0 km/h (0 Bft)
21.08.2017 09:00 13,0 C 86 % 1022,5 hPa 0,0 l/m N 0,00 h 174 W/m 0,0 km/h (0 Bft)
21.08.2017 10:00 14,3 C 77 % 1022,4 hPa 0,0 l/m N 0,08 h 258 W/m 0,0 km/h (0 Bft)
21.08.2017 11:00 15,8 C 70 % 1022,1 hPa 0,0 l/m N 0,58 h 420 W/m 0,0 km/h (0 Bft)
21.08.2017 12:00 17,1 C 64 % 1022,0 hPa 0,0 l/m N 0,92 h 635 W/m 0,8 km/h (0 Bft)
21.08.2017 13:00 18,8 C 58 % 1021,7 hPa 0,0 l/m W-SW 0,83 h 756 W/m 5,7 km/h (1 Bft)
21.08.2017 14:00 18,8 C 56 % 1021,3 hPa 0,0 l/m NO 0,50 h 568 W/m 5,0 km/h (1 Bft)
21.08.2017 15:00 19,1 C 55 % 1020,7 hPa 0,0 l/m N-NW 0,58 h 546 W/m 4,5 km/h (1 Bft)
21.08.2017 16:00 19,6 C 54 % 1020,2 hPa 0,0 l/m N-NW 0,58 h 399 W/m 5,5 km/h (1 Bft)
21.08.2017 17:00 19,3 C 54 % 1020,2 hPa 0,0 l/m N-NW 0,58 h 291 W/m 5,1 km/h (1 Bft)
21.08.2017 18:00 19,5 C 53 % 1020,2 hPa 0,0 l/m N-NW 1,00 h 225 W/m 2,0 km/h (1 Bft)
21.08.2017 19:00 17,9 C 68 % 1020,1 hPa 0,0 l/m N 0,33 h 70 W/m 0,0 km/h (0 Bft)
21.08.2017 20:00 14,7 C 77 % 1020,6 hPa 0,0 l/m N 0,17 h 11 W/m 0,0 km/h (0 Bft)
21.08.2017 21:00 12,8 C 84 % 1021,0 hPa 0,0 l/m N 0,00 h 0 W/m 0,0 km/h (0 Bft)
21.08.2017 22:00 11,8 C 88 % 1021,0 hPa 0,0 l/m N 0,00 h 0 W/m 0,0 km/h (0 Bft)
21.08.2017 23:00 11,2 C 91 % 1020,9 hPa 0,0 l/m N 0,00 h 0 W/m 0,0 km/h (0 Bft)
22.08.2017 00:00 11,2 C 92 % 1020,7 hPa 0,0 l/m N 0,00 h 0 W/m 0,0 km/h (0 Bft)
22.08.2017 01:00 11,0 C 92 % 1020,4 hPa 0,0 l/m N 0,00 h 0 W/m 0,0 km/h (0 Bft)
22.08.2017 02:00 10,4 C 92 % 1020,1 hPa 0,0 l/m N 0,00 h 0 W/m 0,0 km/h (0 Bft)
22.08.2017 03:00 10,1 C 93 % 1020,0 hPa 0,0 l/m N 0,00 h 0 W/m 0,0 km/h (0 Bft)
22.08.2017 04:00 9,5 C 94 % 1019,8 hPa 0,0 l/m N 0,00 h 0 W/m 0,0 km/h (0 Bft)
22.08.2017 05:00 9,3 C 95 % 1019,8 hPa 0,0 l/m N 0,00 h 0 W/m 1,3 km/h (1 Bft)
22.08.2017 06:00 9,1 C 95 % 1019,8 hPa 0,0 l/m N 0,00 h 10 W/m 0,3 km/h (0 Bft)
22.08.2017 07:00 9,3 C 95 % 1019,9 hPa 0,0 l/m N-NW 0,08 h 66 W/m 2,5 km/h (1 Bft)
22.08.2017 08:00 11,5 C 92 % 1019,9 hPa 0,0 l/m N-NW 0,92 h 216 W/m 2,4 km/h (1 Bft)
22.08.2017 09:00 14,5 C 83 % 1019,6 hPa 0,0 l/m N-NW 0,92 h 418 W/m 2,7 km/h (1 Bft)
22.08.2017 10:00 17,5 C 71 % 1019,4 hPa 0,0 l/m N 0,92 h 546 W/m 1,9 km/h (1 Bft)
22.08.2017 11:00 19,8 C 59 % 1018,8 hPa 0,0 l/m O-SO 1,00 h 717 W/m 6,8 km/h (2 Bft)
22.08.2017 12:00 20,7 C 55 % 1018,4 hPa 0,0 l/m S-SO 0,58 h 529 W/m 6,2 km/h (2 Bft)
22.08.2017 13:00 21,4 C 53 % 1018,0 hPa 0,0 l/m O 0,75 h 751 W/m 7,9 km/h (2 Bft)
22.08.2017 14:00 22,2 C 52 % 1017,6 hPa 0,0 l/m O-NO 0,75 h 646 W/m 8,6 km/h (2 Bft)
22.08.2017 15:00 22,3 C 52 % 1017,3 hPa 0,0 l/m N-NO 0,83 h 662 W/m 11,0 km/h (2 Bft)
22.08.2017 16:00 22,8 C 50 % 1016,8 hPa 0,0 l/m O-NO 1,00 h 549 W/m 6,7 km/h (2 Bft)
22.08.2017 17:00 23,0 C 50 % 1016,6 hPa 0,0 l/m O-NO 1,00 h 392 W/m 8,0 km/h (2 Bft)
22.08.2017 18:00 22,5 C 51 % 1016,5 hPa 0,0 l/m O-NO 0,92 h 211 W/m 7,2 km/h (2 Bft)
22.08.2017 19:00 21,0 C 59 % 1016,3 hPa 0,0 l/m O 0,08 h 57 W/m 2,9 km/h (1 Bft)
22.08.2017 20:00 16,9 C 78 % 1016,5 hPa 0,0 l/m N 0,17 h 11 W/m 0,0 km/h (0 Bft)
22.08.2017 21:00 15,1 C 83 % 1016,7 hPa 0,0 l/m N 0,00 h 0 W/m 0,0 km/h (0 Bft)
22.08.2017 22:00 14,1 C 87 % 1016,6 hPa 0,0 l/m N 0,00 h 0 W/m 0,0 km/h (0 Bft)
22.08.2017 23:00 13,3 C 90 % 1016,3 hPa 0,0 l/m N 0,00 h 0 W/m 0,1 km/h (0 Bft)
23.08.2017 00:00 12,8 C 91 % 1016,0 hPa 0,0 l/m N 0,00 h 0 W/m 0,0 km/h (0 Bft)
23.08.2017 01:00 12,4 C 92 % 1015,9 hPa 0,0 l/m N 0,00 h 0 W/m 0,1 km/h (0 Bft)
23.08.2017 02:00 12,3 C 92 % 1015,6 hPa 0,0 l/m N 0,00 h 0 W/m 0,7 km/h (0 Bft)
23.08.2017 03:00 12,7 C 92 % 1015,3 hPa 0,0 l/m O 0,00 h 0 W/m 3,3 km/h (1 Bft)
23.08.2017 04:00 12,7 C 91 % 1015,2 hPa 0,0 l/m O 0,00 h 0 W/m 1,6 km/h (1 Bft)
23.08.2017 05:00 12,6 C 92 % 1015,1 hPa 0,0 l/m O 0,00 h 0 W/m 1,5 km/h (1 Bft)
23.08.2017 06:00 12,0 C 93 % 1015,2 hPa 0,0 l/m N 0,00 h 13 W/m 0,0 km/h (0 Bft)
23.08.2017 07:00 12,6 C 94 % 1015,4 hPa 0,0 l/m O 0,17 h 63 W/m 2,0 km/h (1 Bft)
23.08.2017 08:00 13,4 C 92 % 1015,3 hPa 0,0 l/m O 0,17 h 159 W/m 2,4 km/h (1 Bft)
23.08.2017 09:00 16,0 C 86 % 1015,4 hPa 0,0 l/m O 0,50 h 251 W/m 2,4 km/h (1 Bft)
23.08.2017 10:00 17,4 C 83 % 1015,4 hPa 0,0 l/m O 0,08 h 305 W/m 3,6 km/h (1 Bft)
23.08.2017 11:00 19,3 C 79 % 1015,4 hPa 0,0 l/m O 0,67 h 564 W/m 3,1 km/h (1 Bft)
23.08.2017 12:00 22,0 C 69 % 1015,1 hPa 0,0 l/m O 1,00 h 714 W/m 5,6 km/h (1 Bft)
23.08.2017 13:00 24,1 C 63 % 1014,6 hPa 0,0 l/m O 1,00 h 749 W/m 6,3 km/h (2 Bft)
23.08.2017 14:00 25,7 C 57 % 1014,3 hPa 0,0 l/m S 1,00 h 734 W/m 7,9 km/h (2 Bft)
23.08.2017 15:00 26,3 C 54 % 1014,0 hPa 0,0 l/m W-SW 1,00 h 652 W/m 9,8 km/h (2 Bft)
23.08.2017 16:00 27,3 C 50 % 1013,8 hPa 0,0 l/m W 1,00 h 532 W/m 7,8 km/h (2 Bft)
23.08.2017 17:00 27,7 C 46 % 1013,5 hPa 0,0 l/m W 1,00 h 380 W/m 6,1 km/h (2 Bft)
23.08.2017 18:00 26,5 C 55 % 1013,3 hPa 0,0 l/m W 0,83 h 192 W/m 5,1 km/h (1 Bft)
23.08.2017 19:00 24,0 C 68 % 1013,3 hPa 0,0 l/m W 0,08 h 54 W/m 1,7 km/h (1 Bft)
23.08.2017 20:00 20,6 C 83 % 1013,6 hPa 0,0 l/m N 0,00 h 8 W/m 0,0 km/h (0 Bft)
23.08.2017 21:00 18,7 C 88 % 1013,7 hPa 0,0 l/m N 0,00 h 0 W/m 0,0 km/h (0 Bft)
23.08.2017 22:00 17,7 C 90 % 1013,7 hPa 0,0 l/m N 0,00 h 0 W/m 0,0 km/h (0 Bft)
23.08.2017 23:00 16,9 C 92 % 1013,8 hPa 0,0 l/m N 0,00 h 0 W/m 0,0 km/h (0 Bft)
24.08.2017 00:00 16,3 C 94 % 1013,9 hPa 0,0 l/m N 0,00 h 0 W/m 0,0 km/h (0 Bft)
24.08.2017 01:00 15,8 C 95 % 1013,9 hPa 0,0 l/m N 0,00 h 0 W/m 0,0 km/h (0 Bft)
24.08.2017 02:00 15,5 C 96 % 1013,7 hPa 0,0 l/m N 0,00 h 0 W/m 0,0 km/h (0 Bft)
24.08.2017 03:00 15,0 C 97 % 1013,7 hPa 0,0 l/m N 0,00 h 0 W/m 0,0 km/h (0 Bft)
24.08.2017 04:00 14,6 C 97 % 1013,7 hPa 0,0 l/m N 0,00 h 0 W/m 0,0 km/h (0 Bft)
24.08.2017 05:00 14,5 C 97 % 1013,7 hPa 0,0 l/m N 0,00 h 0 W/m 0,0 km/h (0 Bft)
24.08.2017 06:00 14,5 C 97 % 1014,0 hPa 0,0 l/m N 0,17 h 15 W/m 0,3 km/h (0 Bft)
24.08.2017 07:00 15,4 C 98 % 1014,2 hPa 0,0 l/m S 0,25 h 79 W/m 5,6 km/h (1 Bft)
24.08.2017 08:00 17,9 C 99 % 1014,7 hPa 0,0 l/m S 0,92 h 241 W/m 5,2 km/h (1 Bft)
24.08.2017 09:00 20,5 C 90 % 1014,9 hPa 0,0 l/m S-SW 0,83 h 391 W/m 8,8 km/h (2 Bft)
24.08.2017 10:00 23,0 C 76 % 1014,9 hPa 0,0 l/m W 0,92 h 513 W/m 12,2 km/h (2 Bft)
24.08.2017 11:00 24,6 C 68 % 1015,0 hPa 0,0 l/m W-NW 1,00 h 702 W/m 12,9 km/h (3 Bft)
24.08.2017 12:00 25,9 C 59 % 1014,7 hPa 0,0 l/m W-NW 0,92 h 720 W/m 14,9 km/h (3 Bft)
24.08.2017 13:00 27,1 C 53 % 1014,3 hPa 0,0 l/m W 1,00 h 795 W/m 9,7 km/h (2 Bft)
24.08.2017 14:00 28,0 C 48 % 1013,9 hPa 0,0 l/m W 1,00 h 752 W/m 9,7 km/h (2 Bft)
24.08.2017 15:00 28,6 C 47 % 1013,5 hPa 0,0 l/m W-NW 1,00 h 652 W/m 8,7 km/h (2 Bft)
24.08.2017 16:00 28,8 C 44 % 1013,3 hPa 0,0 l/m N-NW 0,83 h 457 W/m 9,1 km/h (2 Bft)
24.08.2017 17:00 27,6 C 49 % 1013,2 hPa 0,0 l/m N-NW 0,25 h 181 W/m 6,7 km/h (2 Bft)
24.08.2017 18:00 23,0 C 67 % 1015,1 hPa 0,0 l/m W-SW 0,00 h 11 W/m 27,8 km/h (4 Bft)
24.08.2017 19:00 18,0 C 88 % 1016,9 hPa 2,4 l/m SW 0,00 h 7 W/m 25,5 km/h (4 Bft)
24.08.2017 20:00 17,4 C 93 % 1016,4 hPa 0,0 l/m SW 0,00 h 7 W/m 6,3 km/h (2 Bft)
24.08.2017 21:00 16,6 C 95 % 1015,6 hPa 0,0 l/m SW 0,00 h 0 W/m 1,6 km/h (1 Bft)
24.08.2017 22:00 15,8 C 97 % 1016,2 hPa 0,0 l/m N 0,00 h 0 W/m 1,7 km/h (1 Bft)
24.08.2017 23:00 15,4 C 97 % 1016,4 hPa 0,0 l/m SW 0,00 h 0 W/m 0,8 km/h (0 Bft)
25.08.2017 00:00 15,0 C 98 % 1016,3 hPa 0,0 l/m N 0,00 h 0 W/m 0,0 km/h (0 Bft)
25.08.2017 01:00 14,4 C 98 % 1016,4 hPa 0,0 l/m N 0,00 h 0 W/m 0,0 km/h (0 Bft)
25.08.2017 02:00 13,9 C 99 % 1016,2 hPa 0,2 l/m N 0,00 h 0 W/m 0,0 km/h (0 Bft)
25.08.2017 03:00 13,6 C 99 % 1016,1 hPa 0,0 l/m N 0,00 h 0 W/m 0,0 km/h (0 Bft)
25.08.2017 04:00 13,1 C 99 % 1016,0 hPa 0,0 l/m N 0,00 h 0 W/m 0,3 km/h (0 Bft)
25.08.2017 05:00 12,7 C 99 % 1015,9 hPa 0,0 l/m N 0,00 h 0 W/m 0,0 km/h (0 Bft)
25.08.2017 06:00 13,4 C 100 % 1016,2 hPa 0,2 l/m N 0,00 h 11 W/m 0,4 km/h (0 Bft)
25.08.2017 07:00 14,1 C 100 % 1016,5 hPa 0,0 l/m SW 0,00 h 50 W/m 4,3 km/h (1 Bft)
25.08.2017 08:00 15,1 C 100 % 1016,7 hPa 0,0 l/m SW 0,00 h 118 W/m 5,6 km/h (1 Bft)
25.08.2017 09:00 16,0 C 100 % 1016,9 hPa 0,0 l/m SW 0,08 h 218 W/m 8,3 km/h (2 Bft)
25.08.2017 10:00 17,6 C 99 % 1017,0 hPa 0,0 l/m S-SW 0,67 h 403 W/m 8,7 km/h (2 Bft)
25.08.2017 11:00 20,7 C 91 % 1016,7 hPa 0,0 l/m S-SO 1,00 h 636 W/m 8,4 km/h (2 Bft)
25.08.2017 12:00 23,6 C 81 % 1016,3 hPa 0,0 l/m S 1,00 h 706 W/m 7,9 km/h (2 Bft)
25.08.2017 13:00 25,3 C 74 % 1015,7 hPa 0,0 l/m S-SW 1,00 h 736 W/m 11,3 km/h (2 Bft)
25.08.2017 14:00 26,6 C 66 % 1015,3 hPa 0,0 l/m S-SO 1,00 h 697 W/m 11,3 km/h (2 Bft)
25.08.2017 15:00 27,3 C 59 % 1015,0 hPa 0,0 l/m SW 1,00 h 621 W/m 11,3 km/h (2 Bft)
25.08.2017 16:00 27,8 C 56 % 1014,6 hPa 0,0 l/m S 0,92 h 472 W/m 8,3 km/h (2 Bft)
25.08.2017 17:00 27,1 C 57 % 1014,2 hPa 0,0 l/m S 0,42 h 243 W/m 6,3 km/h (2 Bft)
25.08.2017 18:00 26,1 C 64 % 1013,7 hPa 0,0 l/m S 0,25 h 131 W/m 3,1 km/h (1 Bft)
25.08.2017 19:00 23,3 C 81 % 1013,5 hPa 0,0 l/m N 0,00 h 36 W/m 0,0 km/h (0 Bft)
25.08.2017 20:00 21,5 C 85 % 1013,7 hPa 0,0 l/m N 0,17 h 8 W/m 0,1 km/h (0 Bft)
25.08.2017 21:00 19,5 C 86 % 1014,2 hPa 0,0 l/m N 0,00 h 0 W/m 0,0 km/h (0 Bft)
25.08.2017 22:00 18,5 C 87 % 1014,1 hPa 0,0 l/m N 0,00 h 0 W/m 0,0 km/h (0 Bft)
25.08.2017 23:00 17,7 C 90 % 1014,4 hPa 0,0 l/m N 0,00 h 0 W/m 0,0 km/h (0 Bft)
26.08.2017 00:00 17,5 C 90 % 1014,6 hPa 0,0 l/m N 0,00 h 0 W/m 0,4 km/h (0 Bft)
26.08.2017 01:00 16,7 C 92 % 1014,6 hPa 0,0 l/m N 0,00 h 0 W/m 0,0 km/h (0 Bft)
26.08.2017 02:00 16,2 C 95 % 1014,6 hPa 0,0 l/m N 0,00 h 0 W/m 0,0 km/h (0 Bft)
26.08.2017 03:00 16,2 C 96 % 1014,8 hPa 0,0 l/m N 0,00 h 0 W/m 0,0 km/h (0 Bft)
26.08.2017 04:00 15,9 C 97 % 1014,7 hPa 0,0 l/m N 0,00 h 0 W/m 0,0 km/h (0 Bft)
26.08.2017 05:00 15,5 C 97 % 1014,6 hPa 0,0 l/m N 0,00 h 0 W/m 0,0 km/h (0 Bft)
26.08.2017 06:00 15,1 C 98 % 1014,7 hPa 0,0 l/m N 0,25 h 13 W/m 0,0 km/h (0 Bft)
26.08.2017 07:00 15,8 C 99 % 1015,0 hPa 0,0 l/m N 0,42 h 86 W/m 0,0 km/h (0 Bft)
26.08.2017 08:00 17,6 C 97 % 1015,1 hPa 0,0 l/m N 0,25 h 123 W/m 0,4 km/h (0 Bft)
26.08.2017 09:00 20,9 C 87 % 1015,0 hPa 0,0 l/m SW 0,33 h 251 W/m 11,6 km/h (2 Bft)
26.08.2017 10:00 22,9 C 80 % 1015,1 hPa 0,0 l/m S-SW 0,83 h 463 W/m 13,6 km/h (3 Bft)
26.08.2017 11:00 25,2 C 64 % 1014,7 hPa 0,0 l/m W-SW 1,00 h 641 W/m 18,5 km/h (3 Bft)
26.08.2017 12:00 26,7 C 55 % 1014,5 hPa 0,0 l/m SW 1,00 h 721 W/m 18,2 km/h (3 Bft)
26.08.2017 13:00 28,0 C 53 % 1014,0 hPa 0,0 l/m SW 1,00 h 762 W/m 14,0 km/h (3 Bft)
26.08.2017 14:00 28,6 C 47 % 1013,6 hPa 0,0 l/m W-SW 1,00 h 695 W/m 14,8 km/h (3 Bft)
26.08.2017 15:00 29,2 C 45 % 1013,1 hPa 0,0 l/m SW 1,00 h 621 W/m 14,1 km/h (3 Bft)
26.08.2017 16:00 29,2 C 47 % 1012,8 hPa 0,0 l/m SW 1,00 h 484 W/m 13,2 km/h (3 Bft)
26.08.2017 17:00 28,7 C 49 % 1012,5 hPa 0,0 l/m SW 1,00 h 339 W/m 11,7 km/h (2 Bft)
26.08.2017 18:00 27,3 C 56 % 1012,1 hPa 0,0 l/m SW 0,75 h 173 W/m 9,4 km/h (2 Bft)
26.08.2017 19:00 24,8 C 64 % 1012,2 hPa 0,0 l/m SW 0,00 h 48 W/m 8,3 km/h (2 Bft)
26.08.2017 20:00 22,9 C 71 % 1012,6 hPa 0,0 l/m SW 0,08 h 8 W/m 3,9 km/h (1 Bft)
26.08.2017 21:00 21,1 C 78 % 1013,2 hPa 0,0 l/m N 0,00 h 0 W/m 0,0 km/h (0 Bft)
26.08.2017 22:00 19,4 C 85 % 1013,6 hPa 0,0 l/m N 0,00 h 0 W/m 0,0 km/h (0 Bft)
26.08.2017 23:00 18,5 C 89 % 1013,6 hPa 0,0 l/m N 0,00 h 0 W/m 0,0 km/h (0 Bft)
27.08.2017 00:00 17,6 C 91 % 1013,5 hPa 0,0 l/m N 0,00 h 0 W/m 0,0 km/h (0 Bft)
27.08.2017 01:00 17,0 C 93 % 1013,4 hPa 0,0 l/m N 0,00 h 0 W/m 0,0 km/h (0 Bft)
27.08.2017 02:00 16,5 C 94 % 1013,3 hPa 0,0 l/m N 0,00 h 0 W/m 0,0 km/h (0 Bft)
27.08.2017 03:00 16,0 C 95 % 1013,3 hPa 0,0 l/m N 0,00 h 0 W/m 0,0 km/h (0 Bft)
27.08.2017 04:00 15,6 C 96 % 1013,3 hPa 0,0 l/m N 0,00 h 0 W/m 0,0 km/h (0 Bft)
27.08.2017 05:00 15,2 C 97 % 1013,4 hPa 0,0 l/m N 0,00 h 0 W/m 0,3 km/h (0 Bft)
27.08.2017 06:00 15,4 C 97 % 1013,5 hPa 0,0 l/m N 0,00 h 10 W/m 0,0 km/h (0 Bft)
27.08.2017 07:00 15,3 C 97 % 1013,5 hPa 0,0 l/m N 0,08 h 53 W/m 0,0 km/h (0 Bft)
27.08.2017 08:00 17,3 C 93 % 1013,8 hPa 0,0 l/m N 0,33 h 169 W/m 0,1 km/h (0 Bft)
27.08.2017 09:00 20,3 C 83 % 1014,1 hPa 0,0 l/m SW 0,42 h 263 W/m 2,9 km/h (1 Bft)
27.08.2017 10:00 22,3 C 76 % 1014,4 hPa 0,0 l/m SW 0,75 h 465 W/m 2,0 km/h (1 Bft)
27.08.2017 11:00 24,6 C 70 % 1014,3 hPa 0,0 l/m SW 1,00 h 597 W/m 6,4 km/h (2 Bft)
27.08.2017 12:00 26,0 C 68 % 1014,2 hPa 0,0 l/m S-SW 0,92 h 703 W/m 11,8 km/h (2 Bft)
27.08.2017 13:00 27,2 C 58 % 1014,0 hPa 0,0 l/m W-SW 1,00 h 737 W/m 17,3 km/h (3 Bft)
27.08.2017 14:00 26,8 C 54 % 1013,8 hPa 0,0 l/m W-SW 0,67 h 488 W/m 22,8 km/h (4 Bft)
27.08.2017 15:00 26,4 C 57 % 1013,8 hPa 0,0 l/m W-SW 1,00 h 660 W/m 27,5 km/h (4 Bft)
27.08.2017 16:00 26,4 C 55 % 1013,7 hPa 0,0 l/m W-SW 1,00 h 510 W/m 25,3 km/h (4 Bft)
27.08.2017 17:00 24,8 C 66 % 1013,8 hPa 0,0 l/m N 0,08 h 135 W/m 13,6 km/h (3 Bft)
27.08.2017 18:00 21,8 C 82 % 1013,7 hPa 0,0 l/m N 0,17 h 111 W/m 3,3 km/h (1 Bft)
27.08.2017 19:00 20,6 C 88 % 1013,6 hPa 0,0 l/m N 0,00 h 47 W/m 0,5 km/h (0 Bft)
27.08.2017 20:00 19,5 C 91 % 1014,3 hPa 0,0 l/m N 0,08 h 7 W/m 0,0 km/h (0 Bft)
27.08.2017 21:00 18,4 C 94 % 1015,3 hPa 0,0 l/m N 0,00 h 0 W/m 0,5 km/h (0 Bft)
27.08.2017 22:00 17,8 C 96 % 1015,7 hPa 0,0 l/m N 0,00 h 0 W/m 0,0 km/h (0 Bft)
27.08.2017 23:00 17,3 C 97 % 1015,6 hPa 0,0 l/m N 0,00 h 0 W/m 0,0 km/h (0 Bft)
Min-Datum _ 22.08.17 24.08.17 26.08.17 - - - - 21.08.17
_ Min-Zeit 06:45 16:30 18:40 - - - - 00:00
Minimum _ 8,9 C 42 % 1012,0 hPa - - - - 0,0 km/h (0 Bft)
Max-Datum _ 26.08.17 22.08.17 21.08.17 24.08.17 - 21.08.17 22.08.17 24.08.17
_ Max-Zeit 15:20 06:35 00:45 19:25 - 10:55 12:30 18:25
Maximum _ 29,3 C 100 % 1023,0 hPa 2,4 l/m - 0,08 h 1037 W/m 53,1 km/h
W (7 Bft)
Durchschnitt _ 18,5 C 80 % 1016,1 hPa #2,8 l/m SW #58:35 h 349 W/m 4,3 km/h (1 Bft)